Robinson, South Carolina
Current Conditions -  °F | °C
As of 8:35 PM on Monday 24 Nov 2014 (Local Time) from KUDG Reporting Station
Scattered Clouds Scattered Clouds  
Wind Chill: 64°   Ceiling: Unl
Heat Index: 64°   Visibility: 10mi
Dew Point: 59°   Wind: 12mph
Humidity: 83%   Direction: 200°SSW
Pressure: 29.95"   Gusts: 20mph
Location:  34.5053°N, 80.249°W
Report Text: KUDG 250135Z AUTO 20010G17KT 10SM FEW010 SCT016 18/15 A2995 RMK AO1
Loading
Personal Weather Stations






























Interactive Weather Map New forecast layout! Learn more

10-Day Weather Forecast

Advertisements
Track Severe Weather on mobile